createdAt,value
2024-05-09T00:00:39.062Z,470.00
2024-05-09T00:01:34.097Z,468.00
2024-05-09T00:02:33.132Z,465.00
2024-05-09T00:03:33.131Z,466.00
2024-05-09T00:04:33.105Z,468.00
2024-05-09T00:05:33.178Z,471.00
2024-05-09T00:06:33.065Z,472.00
2024-05-09T00:07:33.077Z,471.00
2024-05-09T00:08:33.165Z,473.00
2024-05-09T00:09:33.065Z,472.00
2024-05-09T00:10:37.035Z,471.00
2024-05-09T00:11:34.159Z,471.00
2024-05-09T00:12:33.288Z,474.00
2024-05-09T00:13:33.122Z,472.00
2024-05-09T00:14:33.220Z,472.00
2024-05-09T00:15:33.159Z,476.00
2024-05-09T00:16:33.157Z,476.00
2024-05-09T00:17:33.392Z,473.00
2024-05-09T00:18:33.227Z,472.00
2024-05-09T00:19:33.264Z,474.00
2024-05-09T00:20:38.383Z,473.00
2024-05-09T00:21:34.130Z,472.00
2024-05-09T00:22:33.160Z,473.00
2024-05-09T00:23:33.255Z,474.00
2024-05-09T00:24:33.175Z,471.00
2024-05-09T00:25:33.154Z,473.00
2024-05-09T00:26:33.208Z,472.00
2024-05-09T00:27:33.284Z,472.00
2024-05-09T00:28:33.162Z,471.00
2024-05-09T00:29:33.200Z,471.00
2024-05-09T00:30:35.934Z,473.00
2024-05-09T00:31:33.194Z,473.00
2024-05-09T00:32:33.374Z,475.00
2024-05-09T00:33:33.352Z,474.00
2024-05-09T00:34:33.225Z,473.00
2024-05-09T00:35:33.353Z,473.00
2024-05-09T00:36:33.178Z,476.00
2024-05-09T00:37:33.291Z,472.00
2024-05-09T00:38:33.278Z,474.00
2024-05-09T00:39:33.204Z,475.00
2024-05-09T00:40:38.959Z,477.00
2024-05-09T00:41:34.385Z,476.00
2024-05-09T00:42:33.213Z,473.00
2024-05-09T00:43:33.209Z,475.00
2024-05-09T00:44:33.368Z,476.00
2024-05-09T00:45:33.184Z,475.00
2024-05-09T00:46:33.210Z,474.00
2024-05-09T00:47:33.387Z,471.00
2024-05-09T00:48:33.366Z,473.00
2024-05-09T00:49:33.317Z,471.00
2024-05-09T00:50:36.532Z,471.00
2024-05-09T00:51:33.287Z,470.00
2024-05-09T00:52:33.298Z,471.00
2024-05-09T00:53:33.391Z,472.00
2024-05-09T00:54:33.298Z,475.00
2024-05-09T00:55:33.295Z,477.00
2024-05-09T00:56:33.471Z,477.00
2024-05-09T00:57:33.302Z,476.00
2024-05-09T00:58:33.293Z,479.00
2024-05-09T00:59:33.360Z,477.00
2024-05-09T01:00:39.008Z,480.00
2024-05-09T01:01:34.401Z,476.00
2024-05-09T01:02:33.433Z,476.00
2024-05-09T01:03:33.550Z,477.00
2024-05-09T01:04:33.348Z,480.00
2024-05-09T01:05:33.388Z,479.00
2024-05-09T01:06:33.317Z,472.00
2024-05-09T01:07:33.818Z,474.00
2024-05-09T01:08:33.516Z,473.00
2024-05-09T01:09:33.367Z,474.00
2024-05-09T01:10:35.260Z,485.00
2024-05-09T01:11:33.564Z,486.00
2024-05-09T01:12:33.512Z,487.00
2024-05-09T01:13:33.442Z,483.00
2024-05-09T01:14:33.536Z,484.00
2024-05-09T01:15:33.465Z,485.00
2024-05-09T01:16:33.609Z,482.00
2024-05-09T01:17:33.653Z,484.00
2024-05-09T01:18:33.550Z,484.00
2024-05-09T01:19:33.539Z,484.00
2024-05-09T01:20:41.026Z,483.00
2024-05-09T01:21:34.468Z,483.00
2024-05-09T01:22:33.813Z,483.00
2024-05-09T01:23:33.577Z,483.00
2024-05-09T01:24:33.448Z,481.00
2024-05-09T01:25:33.450Z,483.00
2024-05-09T01:26:33.542Z,480.00
2024-05-09T01:27:33.466Z,480.00
2024-05-09T01:28:33.520Z,479.00
2024-05-09T01:29:33.518Z,479.00
2024-05-09T01:30:36.109Z,478.00
2024-05-09T01:31:33.590Z,478.00
2024-05-09T01:32:33.675Z,475.00
2024-05-09T01:33:33.763Z,477.00
2024-05-09T01:34:33.559Z,475.00
2024-05-09T01:35:33.560Z,477.00
2024-05-09T01:36:33.508Z,477.00
2024-05-09T01:37:33.815Z,476.00
2024-05-09T01:38:33.599Z,473.00
2024-05-09T01:39:33.519Z,473.00
2024-05-09T01:40:38.042Z,474.00
2024-05-09T01:41:34.583Z,475.00
2024-05-09T01:42:33.547Z,473.00
2024-05-09T01:43:33.546Z,474.00
2024-05-09T01:44:33.598Z,478.00
2024-05-09T01:45:33.567Z,472.00
2024-05-09T01:46:33.529Z,475.00
2024-05-09T01:47:33.697Z,474.00
2024-05-09T01:48:33.619Z,476.00
2024-05-09T01:49:33.629Z,477.00
2024-05-09T01:50:38.678Z,476.00
2024-05-09T01:51:34.615Z,477.00
2024-05-09T01:52:33.595Z,476.00
2024-05-09T01:53:33.683Z,474.00
2024-05-09T01:54:33.594Z,474.00
2024-05-09T01:55:33.593Z,476.00
2024-05-09T01:56:33.711Z,477.00
2024-05-09T01:57:33.598Z,476.00
2024-05-09T01:58:33.612Z,474.00
2024-05-09T01:59:33.665Z,476.00
2024-05-09T02:00:39.141Z,477.00
2024-05-09T02:01:55.531Z,477.00
2024-05-09T02:02:34.687Z,479.00
2024-05-09T02:03:33.943Z,479.00
2024-05-09T02:04:33.723Z,478.00
2024-05-09T02:05:33.659Z,479.00
2024-05-09T02:06:33.641Z,475.00
2024-05-09T02:07:33.634Z,476.00
2024-05-09T02:08:33.681Z,474.00
2024-05-09T02:09:33.622Z,476.00
2024-05-09T02:10:33.882Z,476.00
2024-05-09T02:11:33.718Z,478.00
2024-05-09T02:12:33.960Z,480.00
2024-05-09T02:13:33.646Z,481.00
2024-05-09T02:14:33.690Z,480.00
2024-05-09T02:15:33.629Z,483.00
2024-05-09T02:16:33.632Z,481.00
2024-05-09T02:17:33.982Z,478.00
2024-05-09T02:18:33.707Z,478.00
2024-05-09T02:19:33.752Z,477.00
2024-05-09T02:20:36.507Z,476.00
2024-05-09T02:21:33.672Z,479.00
2024-05-09T02:22:33.666Z,479.00
2024-05-09T02:23:33.796Z,480.00
2024-05-09T02:24:33.676Z,480.00
2024-05-09T02:25:33.684Z,481.00
2024-05-09T02:26:33.695Z,478.00
2024-05-09T02:27:33.684Z,477.00
2024-05-09T02:28:33.666Z,479.00
2024-05-09T02:29:33.742Z,480.00
2024-05-09T02:30:39.122Z,480.00
2024-05-09T02:31:34.654Z,479.00
2024-05-09T02:32:33.821Z,478.00
2024-05-09T02:33:34.023Z,475.00
2024-05-09T02:34:33.766Z,475.00
2024-05-09T02:35:33.799Z,476.00
2024-05-09T02:36:33.694Z,477.00
2024-05-09T02:37:33.727Z,475.00
2024-05-09T02:38:33.755Z,476.00
2024-05-09T02:39:33.712Z,476.00
2024-05-09T02:40:37.695Z,475.00
2024-05-09T02:41:34.801Z,476.00
2024-05-09T02:42:33.775Z,475.00
2024-05-09T02:43:33.796Z,475.00
2024-05-09T02:44:33.924Z,474.00
2024-05-09T02:45:33.840Z,475.00
2024-05-09T02:46:33.775Z,475.00
2024-05-09T02:47:33.909Z,476.00
2024-05-09T02:48:33.837Z,474.00
2024-05-09T02:49:34.031Z,473.00
2024-05-09T02:50:38.463Z,474.00
2024-05-09T02:51:34.918Z,475.00
2024-05-09T02:52:33.916Z,477.00
2024-05-09T02:53:34.124Z,478.00
2024-05-09T02:54:33.919Z,478.00
2024-05-09T02:55:33.956Z,476.00
2024-05-09T02:56:33.991Z,476.00
2024-05-09T02:57:33.944Z,476.00
2024-05-09T02:58:33.932Z,476.00
2024-05-09T02:59:34.084Z,477.00
2024-05-09T03:00:38.949Z,477.00
2024-05-09T03:01:35.258Z,481.00
2024-05-09T03:02:34.172Z,479.00
2024-05-09T03:03:34.275Z,480.00
2024-05-09T03:04:34.185Z,481.00
2024-05-09T03:05:34.296Z,480.00
2024-05-09T03:06:34.048Z,479.00
2024-05-09T03:07:34.070Z,478.00
2024-05-09T03:08:34.362Z,477.00
2024-05-09T03:09:34.105Z,478.00
2024-05-09T03:11:34.372Z,479.00
2024-05-09T03:12:36.540Z,479.00
2024-05-09T03:13:34.263Z,478.00
2024-05-09T03:14:34.310Z,478.00
2024-05-09T03:15:34.247Z,476.00
2024-05-09T03:16:34.256Z,473.00
2024-05-09T03:17:34.617Z,475.00
2024-05-09T03:18:34.273Z,474.00
2024-05-09T03:19:34.302Z,477.00
2024-05-09T03:20:35.970Z,478.00
2024-05-09T03:21:34.282Z,480.00
2024-05-09T03:22:34.257Z,480.00
2024-05-09T03:23:34.305Z,479.00
2024-05-09T03:24:34.291Z,480.00
2024-05-09T03:25:34.549Z,481.00
2024-05-09T03:26:34.343Z,478.00
2024-05-09T03:27:34.263Z,477.00
2024-05-09T03:28:34.260Z,476.00
2024-05-09T03:29:34.353Z,476.00
2024-05-09T03:30:40.762Z,477.00
2024-05-09T03:31:35.394Z,478.00
2024-05-09T03:32:34.470Z,479.00
2024-05-09T03:33:34.534Z,481.00
2024-05-09T03:34:34.327Z,485.00
2024-05-09T03:35:34.359Z,487.00
2024-05-09T03:36:34.313Z,486.00
2024-05-09T03:37:34.295Z,484.00
2024-05-09T03:38:34.378Z,484.00
2024-05-09T03:39:34.312Z,484.00
2024-05-09T03:40:34.419Z,481.00
2024-05-09T03:41:34.551Z,480.00
2024-05-09T03:42:34.513Z,480.00
2024-05-09T03:43:34.632Z,482.00
2024-05-09T03:44:34.701Z,480.00
2024-05-09T03:45:34.685Z,479.00
2024-05-09T03:46:34.745Z,479.00
2024-05-09T03:47:34.944Z,477.00
2024-05-09T03:48:34.919Z,478.00
2024-05-09T03:49:35.021Z,480.00
2024-05-09T03:50:36.324Z,479.00
2024-05-09T03:51:35.061Z,479.00
2024-05-09T03:52:35.152Z,480.00
2024-05-09T03:53:35.279Z,478.00
2024-05-09T03:54:35.244Z,482.00
2024-05-09T03:55:35.312Z,483.00
2024-05-09T03:56:35.401Z,485.00
2024-05-09T03:57:35.531Z,483.00
2024-05-09T03:58:35.449Z,486.00
2024-05-09T03:59:35.559Z,486.00
2024-05-09T04:00:38.731Z,485.00
2024-05-09T04:01:35.678Z,486.00
2024-05-09T04:02:35.668Z,486.00
2024-05-09T04:03:35.593Z,485.00
2024-05-09T04:04:35.596Z,482.00
2024-05-09T04:05:35.694Z,481.00
2024-05-09T04:06:35.559Z,482.00
2024-05-09T04:07:35.567Z,480.00
2024-05-09T04:08:35.701Z,479.00
2024-05-09T04:09:35.568Z,477.00
2024-05-09T04:10:35.874Z,479.00
2024-05-09T04:11:35.664Z,481.00
2024-05-09T04:12:35.630Z,481.00
2024-05-09T04:13:35.579Z,484.00
2024-05-09T04:14:35.665Z,485.00
2024-05-09T04:15:35.607Z,484.00
2024-05-09T04:16:35.631Z,485.00
2024-05-09T04:17:35.884Z,484.00
2024-05-09T04:18:35.874Z,487.00
2024-05-09T04:19:35.926Z,486.00
2024-05-09T04:20:39.370Z,485.00
2024-05-09T04:21:36.905Z,483.00
2024-05-09T04:22:36.380Z,485.00
2024-05-09T04:23:35.998Z,483.00
2024-05-09T04:24:35.904Z,482.00
2024-05-09T04:25:35.893Z,481.00
2024-05-09T04:26:35.929Z,479.00
2024-05-09T04:27:35.917Z,478.00
2024-05-09T04:28:35.916Z,477.00
2024-05-09T04:29:36.001Z,478.00
2024-05-09T04:30:39.324Z,478.00
2024-05-09T04:31:36.922Z,479.00
2024-05-09T04:32:36.156Z,481.00
2024-05-09T04:33:36.283Z,479.00
2024-05-09T04:34:36.081Z,479.00
2024-05-09T04:35:35.992Z,480.00
2024-05-09T04:36:35.934Z,479.00
2024-05-09T04:37:35.962Z,485.00
2024-05-09T04:38:36.106Z,484.00
2024-05-09T04:39:35.942Z,486.00
2024-05-09T04:40:37.308Z,484.00
2024-05-09T04:41:36.144Z,481.00
2024-05-09T04:42:36.144Z,478.00
2024-05-09T04:43:36.175Z,478.00
2024-05-09T04:44:36.265Z,475.00
2024-05-09T04:45:36.298Z,476.00
2024-05-09T04:46:36.329Z,474.00
2024-05-09T04:47:37.007Z,479.00
2024-05-09T04:48:36.588Z,480.00
2024-05-09T04:49:37.438Z,482.00
2024-05-09T04:50:38.895Z,483.00
2024-05-09T04:51:36.562Z,483.00
2024-05-09T04:52:36.571Z,482.00
2024-05-09T04:53:36.702Z,484.00
2024-05-09T04:54:36.921Z,481.00
2024-05-09T04:55:36.633Z,481.00
2024-05-09T04:56:36.653Z,479.00
2024-05-09T04:57:36.564Z,479.00
2024-05-09T04:58:36.554Z,481.00
2024-05-09T04:59:36.666Z,481.00
2024-05-09T05:00:38.285Z,481.00
2024-05-09T05:01:36.980Z,482.00
2024-05-09T05:02:37.608Z,485.00
2024-05-09T05:03:37.125Z,485.00
2024-05-09T05:04:37.024Z,486.00
2024-05-09T05:05:37.095Z,488.00
2024-05-09T05:06:37.150Z,490.00
2024-05-09T05:07:37.220Z,490.00
2024-05-09T05:08:37.382Z,491.00
2024-05-09T05:09:37.311Z,491.00
2024-05-09T05:10:37.380Z,492.00
2024-05-09T05:11:37.564Z,490.00
2024-05-09T05:12:37.507Z,488.00
2024-05-09T05:13:40.893Z,488.00
2024-05-09T05:14:37.578Z,484.00
2024-05-09T05:15:37.566Z,480.00
2024-05-09T05:16:37.579Z,482.00
2024-05-09T05:17:37.767Z,481.00
2024-05-09T05:18:45.953Z,495.00
2024-05-09T05:19:46.082Z,497.00
2024-05-09T05:20:46.036Z,494.00
2024-05-09T05:21:45.854Z,492.00
2024-05-09T05:22:45.871Z,494.00
2024-05-09T05:23:45.919Z,497.00
2024-05-09T05:24:45.832Z,497.00
2024-05-09T05:25:45.868Z,492.00
2024-05-09T05:26:46.008Z,492.00
2024-05-09T05:27:45.856Z,493.00
2024-05-09T05:28:45.937Z,495.00
2024-05-09T05:29:45.922Z,493.00
2024-05-09T05:30:45.853Z,487.00
2024-05-09T05:31:45.948Z,486.00
2024-05-09T05:32:46.085Z,483.00
2024-05-09T05:33:45.939Z,482.00
2024-05-09T05:34:46.025Z,480.00
2024-05-09T05:35:45.873Z,479.00
2024-05-09T05:36:45.870Z,481.00
2024-05-09T05:37:45.887Z,482.00
2024-05-09T05:38:45.920Z,484.00
2024-05-09T05:39:45.864Z,486.00
2024-05-09T05:40:45.939Z,485.00
2024-05-09T05:41:45.896Z,485.00
2024-05-09T05:42:45.873Z,483.00
2024-05-09T05:43:45.918Z,482.00
2024-05-09T05:44:45.865Z,480.00
2024-05-09T05:45:45.870Z,481.00
2024-05-09T05:46:45.928Z,480.00
2024-05-09T05:47:46.386Z,480.00
2024-05-09T05:48:46.132Z,483.00
2024-05-09T05:49:46.057Z,484.00
2024-05-09T05:50:46.343Z,484.00
2024-05-09T05:51:46.169Z,485.00
2024-05-09T05:52:46.220Z,485.00
2024-05-09T05:53:46.313Z,487.00
2024-05-09T05:54:46.319Z,487.00
2024-05-09T05:55:46.474Z,488.00
2024-05-09T05:56:46.480Z,486.00
2024-05-09T05:57:46.470Z,486.00
2024-05-09T05:58:46.605Z,483.00
2024-05-09T05:59:46.651Z,484.00
2024-05-09T06:00:46.742Z,486.00
2024-05-09T06:01:46.759Z,487.00
2024-05-09T06:02:47.034Z,485.00
2024-05-09T06:03:47.110Z,483.00
2024-05-09T06:04:47.106Z,482.00
2024-05-09T06:05:47.189Z,483.00
2024-05-09T06:06:47.008Z,483.00
2024-05-09T06:07:47.543Z,483.00
2024-05-09T06:08:47.177Z,481.00
2024-05-09T06:09:48.244Z,478.00
2024-05-09T06:10:47.417Z,477.00
2024-05-09T06:11:47.240Z,480.00
2024-05-09T06:12:47.174Z,481.00
2024-05-09T06:13:47.216Z,480.00
2024-05-09T06:14:47.177Z,481.00
2024-05-09T06:15:47.190Z,481.00
2024-05-09T06:16:47.248Z,482.00
2024-05-09T06:17:47.348Z,482.00
2024-05-09T06:18:47.296Z,483.00
2024-05-09T06:19:47.358Z,484.00
2024-05-09T06:20:47.203Z,482.00
2024-05-09T06:21:47.186Z,482.00
2024-05-09T06:22:47.202Z,484.00
2024-05-09T06:23:47.211Z,482.00
2024-05-09T06:24:47.209Z,483.00
2024-05-09T06:25:47.191Z,484.00
2024-05-09T06:26:47.189Z,483.00
2024-05-09T06:27:47.214Z,484.00
2024-05-09T06:28:47.266Z,486.00
2024-05-09T06:29:47.219Z,487.00
2024-05-09T06:30:47.194Z,486.00
2024-05-09T06:31:47.237Z,492.00
2024-05-09T06:32:47.295Z,487.00
2024-05-09T06:33:47.305Z,480.00
2024-05-09T06:34:47.417Z,479.00
2024-05-09T06:35:47.303Z,477.00
2024-05-09T06:36:47.218Z,479.00
2024-05-09T06:37:47.259Z,468.00
2024-05-09T06:38:47.266Z,466.00
2024-05-09T06:39:47.221Z,466.00
2024-05-09T06:40:47.241Z,474.00
2024-05-09T06:41:47.233Z,474.00
2024-05-09T06:42:47.229Z,471.00
2024-05-09T06:43:47.292Z,475.00
2024-05-09T06:44:47.247Z,472.00
2024-05-09T06:45:47.872Z,474.00
2024-05-09T06:46:47.298Z,475.00
2024-05-09T06:47:47.395Z,477.00
2024-05-09T06:48:47.338Z,481.00
2024-05-09T06:49:47.389Z,464.00
2024-05-09T06:50:47.309Z,472.00
2024-05-09T06:51:47.226Z,477.00
2024-05-09T06:52:47.276Z,477.00
2024-05-09T06:53:47.292Z,476.00
2024-05-09T06:54:47.231Z,476.00
2024-05-09T06:55:47.271Z,479.00
2024-05-09T06:56:47.241Z,477.00
2024-05-09T06:57:47.280Z,477.00
2024-05-09T06:58:47.263Z,478.00
2024-05-09T06:59:47.248Z,476.00
2024-05-09T07:00:47.525Z,477.00
2024-05-09T07:01:47.310Z,477.00
2024-05-09T07:02:47.343Z,478.00
2024-05-09T07:03:47.306Z,478.00
2024-05-09T07:04:48.154Z,478.00
2024-05-09T07:05:48.641Z,478.00
2024-05-09T07:06:47.257Z,480.00
2024-05-09T07:07:47.380Z,479.00
2024-05-09T07:08:48.705Z,475.00
2024-05-09T07:09:47.425Z,474.00
2024-05-09T07:10:47.771Z,474.00
2024-05-09T07:11:47.809Z,469.00
2024-05-09T07:12:47.638Z,479.00
2024-05-09T07:13:47.718Z,468.00
2024-05-09T07:14:47.804Z,469.00
2024-05-09T07:15:47.805Z,475.00
2024-05-09T07:16:47.967Z,475.00
2024-05-09T07:17:48.072Z,480.00
2024-05-09T07:18:48.227Z,485.00
2024-05-09T07:19:48.201Z,487.00
2024-05-09T07:20:49.144Z,481.00
2024-05-09T07:21:48.238Z,469.00
2024-05-09T07:22:48.393Z,476.00
2024-05-09T07:23:48.433Z,476.00
2024-05-09T07:24:48.437Z,478.00
2024-05-09T07:25:48.638Z,479.00
2024-05-09T07:26:48.674Z,477.00
2024-05-09T07:27:48.591Z,475.00
2024-05-09T07:28:48.684Z,467.00
2024-05-09T07:29:48.751Z,472.00
2024-05-09T07:30:48.770Z,473.00
2024-05-09T07:31:48.812Z,476.00
2024-05-09T07:32:49.323Z,473.00
2024-05-09T07:33:48.970Z,470.00
2024-05-09T07:34:48.941Z,466.00
2024-05-09T07:35:49.017Z,465.00
2024-05-09T07:36:48.925Z,462.00
2024-05-09T07:37:49.012Z,466.00
2024-05-09T07:38:49.030Z,470.00
2024-05-09T07:39:49.012Z,465.00
2024-05-09T07:40:49.359Z,466.00
2024-05-09T07:41:49.053Z,467.00
2024-05-09T07:42:49.055Z,467.00
2024-05-09T07:43:49.084Z,467.00
2024-05-09T07:44:49.144Z,465.00
2024-05-09T07:45:53.541Z,463.00
2024-05-09T07:47:52.267Z,464.00
2024-05-09T07:49:13.670Z,465.00
2024-05-09T07:53:17.541Z,456.00
2024-05-09T07:53:35.288Z,459.00
2024-05-09T07:53:52.614Z,460.00
2024-05-09T07:54:49.435Z,459.00
2024-05-09T07:55:49.277Z,459.00
2024-05-09T07:56:49.280Z,460.00
2024-05-09T07:57:49.172Z,460.00
2024-05-09T07:58:49.115Z,463.00
2024-05-09T07:59:49.129Z,465.00
2024-05-09T08:00:49.236Z,462.00
2024-05-09T08:01:49.289Z,454.00
2024-05-09T08:02:49.147Z,456.00
2024-05-09T08:03:49.528Z,458.00
2024-05-09T08:04:49.162Z,464.00
2024-05-09T08:05:49.152Z,454.00
2024-05-09T08:06:49.216Z,459.00
2024-05-09T08:07:49.145Z,462.00
2024-05-09T08:08:49.168Z,457.00
2024-05-09T08:09:49.206Z,457.00
2024-05-09T08:10:49.198Z,457.00
2024-05-09T08:11:50.115Z,456.00
2024-05-09T08:12:49.273Z,458.00
2024-05-09T08:13:49.152Z,458.00
2024-05-09T08:14:49.163Z,458.00
2024-05-09T08:15:49.211Z,461.00
2024-05-09T08:16:49.153Z,462.00
2024-05-09T08:17:49.210Z,460.00
2024-05-09T08:18:49.299Z,459.00
2024-05-09T08:19:49.204Z,461.00
2024-05-09T08:20:49.216Z,463.00
2024-05-09T08:21:49.198Z,458.00
2024-05-09T08:22:49.187Z,458.00
2024-05-09T08:23:49.185Z,461.00
2024-05-09T08:24:49.213Z,463.00
2024-05-09T08:25:49.189Z,463.00
2024-05-09T08:26:49.177Z,461.00
2024-05-09T08:27:49.207Z,463.00
2024-05-09T08:28:49.195Z,444.00
2024-05-09T08:29:49.228Z,459.00
2024-05-09T08:30:49.456Z,461.00
2024-05-09T08:31:49.233Z,465.00
2024-05-09T08:32:49.247Z,464.00
2024-05-09T08:33:49.308Z,464.00
2024-05-09T08:34:49.197Z,460.00
2024-05-09T08:35:49.204Z,459.00
2024-05-09T08:36:49.277Z,459.00
2024-05-09T08:37:49.287Z,464.00
2024-05-09T08:38:49.313Z,459.00
2024-05-09T08:39:49.415Z,452.00
2024-05-09T08:40:49.504Z,444.00
2024-05-09T08:41:49.378Z,459.00
2024-05-09T08:42:49.496Z,458.00
2024-05-09T08:43:49.440Z,456.00
2024-05-09T08:44:49.533Z,459.00
2024-05-09T08:45:49.745Z,458.00
2024-05-09T08:46:49.573Z,454.00
2024-05-09T08:47:49.743Z,455.00
2024-05-09T08:48:49.946Z,450.00
2024-05-09T08:49:49.650Z,445.00
2024-05-09T08:50:49.726Z,451.00
2024-05-09T08:51:49.722Z,457.00
2024-05-09T08:52:49.717Z,456.00
2024-05-09T08:53:49.729Z,455.00
2024-05-09T08:54:49.759Z,457.00
2024-05-09T08:55:49.730Z,453.00
2024-05-09T08:56:49.727Z,455.00
2024-05-09T08:57:49.837Z,454.00
2024-05-09T08:58:49.792Z,456.00
2024-05-09T08:59:49.817Z,453.00
2024-05-09T09:00:50.139Z,457.00
2024-05-09T09:01:50.019Z,452.00
2024-05-09T09:02:49.985Z,454.00
2024-05-09T09:03:50.193Z,457.00
2024-05-09T09:04:50.288Z,450.00
2024-05-09T09:05:50.194Z,428.00
2024-05-09T09:06:51.446Z,443.00
2024-05-09T09:07:50.312Z,460.00
2024-05-09T09:08:50.400Z,445.00
2024-05-09T09:09:50.449Z,451.00
2024-05-09T09:10:50.512Z,452.00
2024-05-09T09:11:50.615Z,458.00
2024-05-09T09:12:50.654Z,450.00
2024-05-09T09:13:50.713Z,456.00
2024-05-09T09:14:50.792Z,454.00
2024-05-09T09:15:50.935Z,446.00
2024-05-09T09:16:50.898Z,452.00
2024-05-09T09:17:51.079Z,452.00
2024-05-09T09:18:51.178Z,451.00
2024-05-09T09:19:51.108Z,453.00
2024-05-09T09:20:51.144Z,452.00
2024-05-09T09:21:51.268Z,444.00
2024-05-09T09:22:51.267Z,452.00
2024-05-09T09:23:51.290Z,451.00
2024-05-09T09:24:51.405Z,422.00
2024-05-09T09:25:51.406Z,448.00
2024-05-09T09:26:51.450Z,458.00
2024-05-09T09:27:51.669Z,445.00
2024-05-09T09:28:51.531Z,455.00
2024-05-09T09:29:51.592Z,459.00
2024-05-09T09:30:51.686Z,444.00
2024-05-09T09:31:51.642Z,450.00
2024-05-09T09:32:51.768Z,449.00
2024-05-09T09:33:51.881Z,452.00
2024-05-09T09:34:51.732Z,459.00
2024-05-09T09:35:51.722Z,452.00
2024-05-09T09:36:51.774Z,457.00
2024-05-09T09:37:51.733Z,455.00
2024-05-09T09:38:51.771Z,459.00
2024-05-09T09:39:51.910Z,456.00
2024-05-09T09:40:51.878Z,453.00
2024-05-09T09:41:51.879Z,449.00
2024-05-09T09:42:52.024Z,452.00
2024-05-09T09:43:51.946Z,456.00
2024-05-09T09:45:01.862Z,454.00
2024-05-09T09:45:53.756Z,455.00
2024-05-09T09:46:52.037Z,457.00
2024-05-09T09:47:52.132Z,444.00
2024-05-09T09:48:52.133Z,453.00
2024-05-09T09:49:52.036Z,450.00
2024-05-09T09:50:52.195Z,450.00
2024-05-09T09:51:51.975Z,452.00
2024-05-09T09:52:51.976Z,454.00
2024-05-09T09:53:52.014Z,452.00
2024-05-09T09:54:52.065Z,450.00
2024-05-09T09:55:52.030Z,451.00
2024-05-09T09:56:51.977Z,446.00
2024-05-09T09:57:52.058Z,450.00
2024-05-09T09:58:51.992Z,436.00
2024-05-09T09:59:51.993Z,448.00
2024-05-09T10:00:52.139Z,438.00
2024-05-09T10:01:52.108Z,440.00
2024-05-09T10:02:52.146Z,450.00
2024-05-09T10:03:52.221Z,451.00
2024-05-09T10:04:52.295Z,449.00
2024-05-09T10:05:52.343Z,447.00
2024-05-09T10:06:52.339Z,444.00
2024-05-09T10:07:52.431Z,446.00
2024-05-09T10:08:52.475Z,447.00
2024-05-09T10:09:52.608Z,449.00
2024-05-09T10:10:52.870Z,450.00
2024-05-09T10:11:59.670Z,447.00
2024-05-09T10:12:53.706Z,453.00
2024-05-09T10:13:52.764Z,454.00
2024-05-09T10:14:52.682Z,447.00
2024-05-09T10:15:53.047Z,452.00
2024-05-09T10:16:52.696Z,456.00
2024-05-09T10:17:52.815Z,448.00
2024-05-09T10:18:53.014Z,451.00
2024-05-09T10:19:52.840Z,454.00
2024-05-09T10:20:52.674Z,455.00
2024-05-09T10:21:52.831Z,453.00
2024-05-09T10:22:52.802Z,454.00
2024-05-09T10:23:53.088Z,453.00
2024-05-09T10:24:53.015Z,454.00
2024-05-09T10:25:53.015Z,458.00
2024-05-09T10:26:53.054Z,455.00
2024-05-09T10:27:53.174Z,458.00
2024-05-09T10:28:53.079Z,456.00
2024-05-09T10:29:53.112Z,456.00
2024-05-09T10:30:53.229Z,455.00
2024-05-09T10:31:53.289Z,454.00
2024-05-09T10:32:53.343Z,453.00
2024-05-09T10:33:53.478Z,455.00
2024-05-09T10:34:53.374Z,452.00
2024-05-09T10:35:53.322Z,454.00
2024-05-09T10:36:53.395Z,454.00
2024-05-09T10:37:53.344Z,451.00
2024-05-09T10:38:53.398Z,446.00
2024-05-09T10:39:53.437Z,447.00
2024-05-09T10:40:53.481Z,450.00
2024-05-09T10:41:53.491Z,448.00
2024-05-09T10:42:53.525Z,447.00
2024-05-09T10:43:53.543Z,449.00
2024-05-09T10:44:53.557Z,448.00
2024-05-09T10:45:53.663Z,453.00
2024-05-09T10:46:53.631Z,450.00
2024-05-09T10:47:53.840Z,448.00
2024-05-09T10:48:53.777Z,446.00
2024-05-09T10:49:53.877Z,448.00
2024-05-09T10:50:53.741Z,452.00
2024-05-09T10:51:53.828Z,450.00
2024-05-09T10:52:53.751Z,449.00
2024-05-09T10:53:54.105Z,449.00
2024-05-09T10:54:53.871Z,448.00
2024-05-09T10:55:53.815Z,449.00
2024-05-09T10:56:53.820Z,451.00
2024-05-09T10:57:53.923Z,447.00
2024-05-09T10:58:53.883Z,443.00
2024-05-09T10:59:53.874Z,453.00
2024-05-09T11:00:54.035Z,449.00
2024-05-09T11:01:54.104Z,446.00
2024-05-09T11:02:53.973Z,448.00
2024-05-09T11:03:54.207Z,451.00
2024-05-09T11:04:54.181Z,449.00
2024-05-09T11:05:54.126Z,444.00
2024-05-09T11:06:54.089Z,447.00
2024-05-09T11:07:54.293Z,445.00
2024-05-09T11:08:54.184Z,447.00
2024-05-09T11:09:54.305Z,451.00
2024-05-09T11:10:54.307Z,446.00
2024-05-09T11:11:54.303Z,450.00
2024-05-09T11:12:54.273Z,444.00
2024-05-09T11:13:54.226Z,447.00
2024-05-09T11:14:54.247Z,447.00
2024-05-09T11:15:54.339Z,443.00
2024-05-09T11:16:54.336Z,447.00
2024-05-09T11:17:54.487Z,441.00
2024-05-09T11:18:54.621Z,444.00
2024-05-09T11:19:54.536Z,441.00
2024-05-09T11:20:54.551Z,455.00
2024-05-09T11:21:54.732Z,453.00
2024-05-09T11:22:54.820Z,452.00
2024-05-09T11:23:54.778Z,448.00
2024-05-09T11:24:55.010Z,446.00
2024-05-09T11:25:54.871Z,449.00
2024-05-09T11:26:54.954Z,451.00
2024-05-09T11:27:55.078Z,452.00
2024-05-09T11:28:55.052Z,452.00
2024-05-09T11:29:55.004Z,458.00
2024-05-09T11:30:55.138Z,446.00
2024-05-09T11:31:55.159Z,445.00
2024-05-09T11:32:55.234Z,445.00
2024-05-09T11:33:55.421Z,445.00
2024-05-09T11:34:55.228Z,447.00
2024-05-09T11:35:55.204Z,450.00
2024-05-09T11:36:55.293Z,447.00
2024-05-09T11:37:55.280Z,450.00
2024-05-09T11:38:55.294Z,441.00
2024-05-09T11:39:55.346Z,447.00
2024-05-09T11:40:55.344Z,444.00
2024-05-09T11:41:55.313Z,444.00
2024-05-09T11:42:55.411Z,443.00
2024-05-09T11:43:55.392Z,446.00
2024-05-09T11:44:55.435Z,442.00
2024-05-09T11:45:55.532Z,440.00
2024-05-09T11:46:55.572Z,444.00
2024-05-09T11:47:55.760Z,447.00
2024-05-09T11:48:55.723Z,448.00
2024-05-09T11:49:55.757Z,443.00
2024-05-09T11:50:55.806Z,444.00
2024-05-09T11:51:55.890Z,443.00
2024-05-09T11:52:55.762Z,449.00
2024-05-09T11:53:55.762Z,418.00
2024-05-09T11:54:55.855Z,452.00
2024-05-09T11:55:55.845Z,431.00
2024-05-09T11:56:55.859Z,450.00
2024-05-09T11:57:56.068Z,445.00
2024-05-09T11:58:55.969Z,437.00
2024-05-09T11:59:55.961Z,443.00
2024-05-09T12:00:56.100Z,442.00
2024-05-09T12:01:56.099Z,443.00
2024-05-09T12:02:56.105Z,439.00
2024-05-09T12:03:56.288Z,438.00
2024-05-09T12:04:56.270Z,445.00
2024-05-09T12:05:56.372Z,435.00
2024-05-09T12:06:56.421Z,441.00
2024-05-09T12:07:56.456Z,440.00
2024-05-09T12:08:56.544Z,444.00
2024-05-09T12:09:56.580Z,451.00
2024-05-09T12:10:57.304Z,432.00
2024-05-09T12:11:56.723Z,433.00
2024-05-09T12:12:56.771Z,439.00
2024-05-09T12:13:56.803Z,437.00
2024-05-09T12:14:56.874Z,442.00
2024-05-09T12:15:56.920Z,443.00
2024-05-09T12:16:57.017Z,435.00
2024-05-09T12:17:59.939Z,439.00
2024-05-09T12:18:57.302Z,437.00
2024-05-09T12:19:57.031Z,439.00
2024-05-09T12:20:57.017Z,442.00
2024-05-09T12:21:57.067Z,443.00
2024-05-09T12:22:57.038Z,440.00
2024-05-09T12:23:57.035Z,441.00
2024-05-09T12:24:57.102Z,445.00
2024-05-09T12:25:57.040Z,425.00
2024-05-09T12:26:57.053Z,428.00
2024-05-09T12:27:57.061Z,429.00
2024-05-09T12:28:57.023Z,432.00
2024-05-09T12:29:57.034Z,433.00
2024-05-09T12:30:57.096Z,425.00
2024-05-09T12:31:57.109Z,449.00
2024-05-09T12:32:57.258Z,436.00